createdAt,value
2022-10-20T00:00:09.164Z,27.98
2022-10-20T00:02:36.326Z,24.05
2022-10-20T00:05:04.287Z,24.50
2022-10-20T00:07:31.068Z,25.08
2022-10-20T00:09:57.872Z,26.67
2022-10-20T00:12:24.695Z,24.92
2022-10-20T00:14:51.498Z,25.85
2022-10-20T00:17:18.322Z,20.10
2022-10-20T00:19:48.319Z,22.83
2022-10-20T00:22:15.271Z,22.27
2022-10-20T00:24:42.217Z,22.33
2022-10-20T00:27:09.569Z,20.73
2022-10-20T00:29:36.730Z,21.80
2022-10-20T00:32:03.715Z,20.02
2022-10-20T00:34:30.483Z,18.83
2022-10-20T00:36:57.309Z,17.90
2022-10-20T00:39:24.076Z,20.30
2022-10-20T00:41:50.867Z,20.13
2022-10-20T00:44:47.319Z,17.70
2022-10-20T00:47:18.540Z,16.27
2022-10-20T00:49:46.546Z,16.33
2022-10-20T00:52:14.590Z,14.00
2022-10-20T00:54:41.844Z,13.75
2022-10-20T00:57:08.732Z,14.18
2022-10-20T00:59:37.496Z,13.73
2022-10-20T01:02:07.054Z,13.70
2022-10-20T01:04:36.618Z,13.27
2022-10-20T01:07:03.600Z,14.50
2022-10-20T01:09:31.271Z,13.50
2022-10-20T01:12:05.266Z,12.90
2022-10-20T01:14:50.681Z,16.13
2022-10-20T01:17:31.075Z,12.45
2022-10-20T01:20:25.612Z,15.02
2022-10-20T01:23:10.815Z,12.77
2022-10-20T01:25:57.245Z,11.15
2022-10-20T01:28:41.947Z,11.38
2022-10-20T01:32:04.408Z,12.50
2022-10-20T01:35:00.129Z,11.35
2022-10-20T01:37:49.887Z,12.55
2022-10-20T01:40:24.338Z,14.05
2022-10-20T01:42:53.735Z,11.93
2022-10-20T01:47:51.553Z,12.63
2022-10-20T01:50:19.990Z,10.60
2022-10-20T01:52:47.117Z,13.27
2022-10-20T01:55:16.520Z,13.50
2022-10-20T02:00:17.371Z,12.70
2022-10-20T02:03:02.535Z,13.60
2022-10-20T02:06:05.897Z,12.63
2022-10-20T02:08:35.745Z,12.43
2022-10-20T02:11:05.966Z,17.23
2022-10-20T02:13:38.528Z,13.77
2022-10-20T02:16:12.815Z,15.05
2022-10-20T02:18:43.193Z,15.98
2022-10-20T02:21:10.795Z,14.00
2022-10-20T02:23:41.188Z,14.68
2022-10-20T02:26:12.439Z,14.80
2022-10-20T02:28:43.351Z,18.00
2022-10-20T02:31:10.924Z,14.93
2022-10-20T02:33:39.336Z,16.55
2022-10-20T02:36:06.877Z,15.53
2022-10-20T02:38:33.694Z,16.25
2022-10-20T02:41:00.541Z,17.58
2022-10-20T02:43:27.328Z,14.88
2022-10-20T02:45:54.130Z,17.17
2022-10-20T02:48:20.919Z,15.93
2022-10-20T02:50:47.735Z,16.92
2022-10-20T02:53:14.565Z,17.38
2022-10-20T02:55:42.689Z,18.67
2022-10-20T02:58:09.982Z,16.60
2022-10-20T03:00:36.774Z,15.15
2022-10-20T03:03:03.653Z,18.07
2022-10-20T03:05:30.549Z,18.00
2022-10-20T03:07:57.330Z,22.08
2022-10-20T03:10:24.103Z,17.27
2022-10-20T03:12:50.875Z,19.13
2022-10-20T03:15:17.864Z,17.35
2022-10-20T03:17:44.662Z,17.47
2022-10-20T03:20:11.674Z,15.88
2022-10-20T03:22:38.551Z,18.17
2022-10-20T03:25:05.805Z,15.18
2022-10-20T03:27:32.635Z,21.52
2022-10-20T03:29:59.451Z,16.60
2022-10-20T03:32:26.307Z,15.63
2022-10-20T03:34:53.171Z,18.13
2022-10-20T03:37:19.997Z,19.87
2022-10-20T03:39:46.791Z,15.50
2022-10-20T03:42:14.651Z,18.90
2022-10-20T03:44:41.565Z,16.27
2022-10-20T03:47:08.416Z,17.47
2022-10-20T03:49:35.200Z,18.97
2022-10-20T03:52:02.019Z,17.67
2022-10-20T03:54:28.856Z,18.03
2022-10-20T03:56:56.579Z,15.07
2022-10-20T03:59:25.595Z,16.67
2022-10-20T04:01:55.189Z,16.03
2022-10-20T04:04:22.101Z,16.80
2022-10-20T04:06:48.882Z,19.20
2022-10-20T04:09:15.686Z,20.57
2022-10-20T04:11:42.543Z,21.55
2022-10-20T04:14:09.482Z,21.05
2022-10-20T04:16:36.349Z,21.33
2022-10-20T04:19:03.480Z,20.27
2022-10-20T04:21:30.321Z,20.97
2022-10-20T04:23:57.130Z,18.10
2022-10-20T04:26:23.968Z,19.70
2022-10-20T04:28:50.801Z,18.33
2022-10-20T04:31:17.650Z,18.33
2022-10-20T04:33:44.443Z,18.67
2022-10-20T04:36:12.770Z,17.47
2022-10-20T04:38:39.619Z,17.93
2022-10-20T04:41:06.562Z,18.60
2022-10-20T04:43:35.204Z,19.47
2022-10-20T04:46:07.109Z,23.02
2022-10-20T04:48:36.846Z,21.00
2022-10-20T04:51:09.126Z,22.20
2022-10-20T04:53:36.434Z,25.63
2022-10-20T04:56:04.991Z,19.67
2022-10-20T04:58:32.591Z,24.30
2022-10-20T05:01:12.469Z,22.30
2022-10-20T05:03:39.491Z,24.00
2022-10-20T05:06:15.603Z,25.33
2022-10-20T05:08:44.378Z,22.47
2022-10-20T05:11:11.628Z,26.73
2022-10-20T05:13:39.095Z,21.67
2022-10-20T05:16:06.736Z,24.93
2022-10-20T05:18:34.784Z,19.77
2022-10-20T05:21:09.731Z,19.90
2022-10-20T05:23:38.012Z,17.87
2022-10-20T05:26:09.120Z,22.87
2022-10-20T05:28:36.043Z,25.70
2022-10-20T05:31:05.575Z,24.17
2022-10-20T05:33:32.909Z,20.10
2022-10-20T05:35:59.923Z,24.10
2022-10-20T05:38:26.719Z,18.20
2022-10-20T05:40:53.570Z,24.27
2022-10-20T05:43:20.432Z,24.67
2022-10-20T05:45:54.060Z,20.65
2022-10-20T05:48:20.937Z,20.50
2022-10-20T05:50:47.781Z,21.43
2022-10-20T05:53:14.589Z,20.67
2022-10-20T05:55:41.430Z,18.80
2022-10-20T05:58:08.256Z,26.85
2022-10-20T06:00:41.799Z,24.93
2022-10-20T06:03:08.936Z,27.05
2022-10-20T06:05:35.812Z,26.38
2022-10-20T06:08:02.631Z,26.70
2022-10-20T06:10:29.454Z,23.10
2022-10-20T06:12:56.246Z,22.30
2022-10-20T06:15:22.982Z,22.42
2022-10-20T06:17:49.863Z,29.05
2022-10-20T06:20:16.724Z,30.02
2022-10-20T06:22:43.856Z,26.38
2022-10-20T06:25:10.682Z,24.05
2022-10-20T06:27:37.525Z,24.52
2022-10-20T06:30:04.722Z,21.13
2022-10-20T06:32:31.578Z,25.52
2022-10-20T06:34:58.365Z,20.52
2022-10-20T06:37:25.244Z,30.85
2022-10-20T06:39:51.994Z,24.02
2022-10-20T06:42:18.845Z,21.77
2022-10-20T06:44:45.791Z,19.08
2022-10-20T06:47:12.643Z,19.73
2022-10-20T06:49:39.589Z,18.98
2022-10-20T06:52:06.685Z,18.70
2022-10-20T06:54:33.562Z,20.95
2022-10-20T06:57:00.408Z,17.65
2022-10-20T06:59:27.231Z,17.63
2022-10-20T07:01:54.115Z,19.33
2022-10-20T07:04:21.037Z,20.08
2022-10-20T07:06:47.964Z,18.35
2022-10-20T07:09:19.645Z,16.02
2022-10-20T07:11:50.413Z,16.33
2022-10-20T07:14:17.398Z,17.35
2022-10-20T07:16:44.194Z,17.45
2022-10-20T07:19:11.179Z,14.18
2022-10-20T07:21:39.279Z,18.13
2022-10-20T07:24:07.583Z,15.45
2022-10-20T07:26:36.555Z,19.23
2022-10-20T07:29:04.715Z,16.83
2022-10-20T07:31:51.770Z,17.80
2022-10-20T07:34:25.635Z,16.75
2022-10-20T07:36:54.109Z,20.38
2022-10-20T07:39:22.394Z,18.13
2022-10-20T07:41:49.650Z,16.98
2022-10-20T07:44:16.953Z,14.38
2022-10-20T07:46:44.445Z,16.80
2022-10-20T07:49:42.471Z,14.05
2022-10-20T07:51:58.641Z,19.17
2022-10-20T07:54:25.711Z,13.80
2022-10-20T07:56:52.588Z,17.42
2022-10-20T07:59:19.487Z,19.08
2022-10-20T08:01:47.019Z,15.70
2022-10-20T08:04:13.908Z,13.93
2022-10-20T08:06:40.778Z,11.73
2022-10-20T08:09:07.918Z,11.43
2022-10-20T08:11:35.845Z,14.68
2022-10-20T08:14:03.027Z,13.23
2022-10-20T08:16:38.303Z,15.20
2022-10-20T08:19:07.824Z,12.13
2022-10-20T08:21:34.726Z,9.88
2022-10-20T08:24:02.929Z,11.15
2022-10-20T08:26:29.778Z,10.40
2022-10-20T08:28:56.561Z,12.30
2022-10-20T08:31:23.901Z,9.75
2022-10-20T08:33:54.048Z,10.91
2022-10-20T08:36:21.386Z,7.88
2022-10-20T08:38:48.662Z,8.52
2022-10-20T08:41:27.060Z,8.82
2022-10-20T08:43:57.980Z,10.50
2022-10-20T08:46:35.854Z,8.38
2022-10-20T08:49:06.184Z,6.80
2022-10-20T08:51:38.607Z,9.10
2022-10-20T08:54:11.963Z,6.60
2022-10-20T08:56:38.979Z,10.82
2022-10-20T08:59:26.753Z,14.20
2022-10-20T09:01:55.241Z,7.60
2022-10-20T09:04:31.921Z,7.38
2022-10-20T09:07:05.645Z,5.28
2022-10-20T09:09:33.854Z,5.60
2022-10-20T09:12:07.517Z,4.70
2022-10-20T09:14:37.398Z,7.68
2022-10-20T09:17:09.173Z,8.30
2022-10-20T09:19:38.779Z,7.00
2022-10-20T09:22:07.366Z,4.43
2022-10-20T09:24:36.298Z,6.13
2022-10-20T09:27:24.822Z,7.78
2022-10-20T09:29:52.002Z,6.05
2022-10-20T09:32:48.791Z,5.63
2022-10-20T09:35:29.640Z,3.42
2022-10-20T09:38:24.609Z,4.63
2022-10-20T09:41:11.574Z,6.63
2022-10-20T09:43:50.015Z,4.30
2022-10-20T09:46:24.900Z,3.90
2022-10-20T09:48:52.460Z,3.90
2022-10-20T09:51:23.298Z,4.57
2022-10-20T09:53:50.144Z,3.85
2022-10-20T09:56:33.515Z,2.70
2022-10-20T09:59:02.848Z,2.70
2022-10-20T10:01:30.357Z,3.00
2022-10-20T10:04:02.302Z,4.57
2022-10-20T10:06:38.460Z,4.20
2022-10-20T10:09:34.647Z,4.22
2022-10-20T10:12:03.742Z,4.88
2022-10-20T10:17:01.262Z,4.15
2022-10-20T10:19:31.225Z,4.35
2022-10-20T10:22:02.089Z,2.40
2022-10-20T10:24:46.610Z,2.85
2022-10-20T10:27:20.805Z,3.90
2022-10-20T10:29:49.141Z,5.38
2022-10-20T10:32:27.200Z,4.63
2022-10-20T10:35:17.353Z,6.13
2022-10-20T10:37:45.561Z,3.15
2022-10-20T10:40:18.467Z,2.75
2022-10-20T10:43:11.733Z,5.22
2022-10-20T10:45:41.622Z,4.63
2022-10-20T10:48:27.092Z,2.58
2022-10-20T10:51:07.804Z,3.72
2022-10-20T10:53:49.679Z,5.03
2022-10-20T10:56:38.699Z,4.63
2022-10-20T10:59:23.379Z,2.35
2022-10-20T11:02:08.865Z,3.97
2022-10-20T11:04:49.230Z,7.25
2022-10-20T11:07:28.328Z,2.20
2022-10-20T11:10:32.717Z,5.05
2022-10-20T11:13:21.681Z,3.85
2022-10-20T11:16:08.261Z,3.30
2022-10-20T11:19:12.709Z,4.78
2022-10-20T11:22:02.351Z,1.70
2022-10-20T11:24:34.765Z,4.05
2022-10-20T11:27:13.406Z,4.07
2022-10-20T11:29:45.636Z,2.97
2022-10-20T11:32:48.807Z,2.75
2022-10-20T11:35:27.709Z,2.90
2022-10-20T11:40:40.014Z,2.05
2022-10-20T11:43:25.119Z,2.72
2022-10-20T11:45:57.772Z,4.07
2022-10-20T11:48:33.689Z,2.97
2022-10-20T11:51:30.679Z,4.82
2022-10-20T11:54:26.908Z,3.45
2022-10-20T11:57:10.473Z,2.08
2022-10-20T12:00:01.062Z,3.35
2022-10-20T12:02:55.618Z,3.58
2022-10-20T12:06:09.205Z,4.90
2022-10-20T12:08:58.888Z,2.58
2022-10-20T12:11:39.497Z,5.90
2022-10-20T12:14:15.568Z,2.35
2022-10-20T12:16:54.726Z,3.33
2022-10-20T12:19:25.780Z,4.75
2022-10-20T12:22:07.086Z,5.93
2022-10-20T12:24:38.901Z,3.90
2022-10-20T12:27:17.734Z,4.47
2022-10-20T12:32:29.235Z,4.45
2022-10-20T12:35:01.694Z,5.15
2022-10-20T12:37:29.799Z,3.15
2022-10-20T12:40:02.909Z,4.80
2022-10-20T12:42:32.828Z,2.95
2022-10-20T12:45:05.037Z,3.58
2022-10-20T12:47:34.779Z,2.17
2022-10-20T12:50:38.397Z,1.83
2022-10-20T12:53:14.396Z,2.70
2022-10-20T12:55:42.552Z,4.75
2022-10-20T12:58:25.386Z,2.90
2022-10-20T13:00:52.221Z,5.32
2022-10-20T13:03:37.434Z,4.43
2022-10-20T13:06:24.485Z,2.97
2022-10-20T13:09:08.033Z,5.22
2022-10-20T13:11:44.847Z,4.05
2022-10-20T13:14:46.798Z,8.80
2022-10-20T13:17:23.123Z,1.92
2022-10-20T13:20:01.173Z,3.90
2022-10-20T13:22:40.632Z,4.88
2022-10-20T13:25:36.591Z,4.80
2022-10-20T13:28:14.077Z,3.17
2022-10-20T13:31:02.880Z,3.38
2022-10-20T13:37:03.618Z,4.22
2022-10-20T13:39:45.485Z,4.15
2022-10-20T13:42:27.387Z,2.65
2022-10-20T13:45:20.395Z,3.58
2022-10-20T13:48:29.689Z,4.18
2022-10-20T13:51:04.230Z,3.17
2022-10-20T13:53:53.177Z,3.95
2022-10-20T13:56:45.457Z,4.20
2022-10-20T13:59:27.248Z,5.38
2022-10-20T14:01:58.570Z,5.03
2022-10-20T14:04:36.846Z,4.30
2022-10-20T14:07:13.420Z,4.18
2022-10-20T14:09:45.364Z,3.88
2022-10-20T14:12:23.690Z,1.98
2022-10-20T14:14:50.656Z,2.70
2022-10-20T14:17:21.274Z,2.10
2022-10-20T14:19:48.362Z,4.93
2022-10-20T14:22:19.894Z,2.90
2022-10-20T14:24:48.538Z,2.67
2022-10-20T14:27:22.412Z,5.15
2022-10-20T14:29:50.547Z,4.72
2022-10-20T14:32:24.827Z,4.57
2022-10-20T14:35:13.748Z,3.28
2022-10-20T14:37:44.857Z,4.20
2022-10-20T14:40:24.410Z,2.83
2022-10-20T14:42:52.382Z,3.67
2022-10-20T14:45:27.426Z,4.40
2022-10-20T14:47:57.710Z,4.80
2022-10-20T14:50:41.101Z,3.40
2022-10-20T14:53:23.072Z,5.45
2022-10-20T14:55:49.931Z,6.63
2022-10-20T14:58:58.100Z,9.05
2022-10-20T15:01:28.961Z,8.38
2022-10-20T15:04:10.987Z,5.63
2022-10-20T15:06:38.018Z,6.30
2022-10-20T15:09:04.982Z,6.03
2022-10-20T15:11:32.818Z,8.88
2022-10-20T15:14:00.443Z,9.10
2022-10-20T15:16:56.444Z,6.43
2022-10-20T15:19:29.455Z,9.05
2022-10-20T15:22:20.976Z,12.73
2022-10-20T15:24:50.022Z,8.63
2022-10-20T15:27:18.155Z,11.48
2022-10-20T15:29:51.151Z,6.38
2022-10-20T15:32:18.761Z,9.18
2022-10-20T15:34:45.619Z,11.70
2022-10-20T15:37:12.486Z,9.48
2022-10-20T15:39:39.337Z,11.55
2022-10-20T15:42:11.277Z,8.63
2022-10-20T15:44:39.176Z,8.75
2022-10-20T15:47:07.213Z,12.10
2022-10-20T15:49:34.149Z,10.38
2022-10-20T15:52:01.071Z,11.73
2022-10-20T15:54:28.030Z,10.35
2022-10-20T15:56:54.892Z,10.20
2022-10-20T15:59:21.704Z,8.95
2022-10-20T16:01:48.546Z,7.25
2022-10-20T16:04:17.145Z,8.80
2022-10-20T16:06:44.135Z,11.82
2022-10-20T16:09:13.563Z,10.70
2022-10-20T16:11:43.078Z,13.90
2022-10-20T16:14:10.052Z,12.02
2022-10-20T16:16:36.905Z,11.63
2022-10-20T16:19:03.844Z,10.75
2022-10-20T16:21:30.712Z,23.05
2022-10-20T16:23:57.770Z,23.17
2022-10-20T16:26:24.539Z,20.40
2022-10-20T16:28:51.383Z,25.70
2022-10-20T16:31:18.302Z,23.00
2022-10-20T16:33:45.512Z,25.95
2022-10-20T16:36:15.387Z,32.25
2022-10-20T16:38:43.083Z,27.40
2022-10-20T16:41:15.156Z,24.98
2022-10-20T16:43:44.662Z,25.88
2022-10-20T16:46:13.720Z,27.80
2022-10-20T16:48:43.930Z,27.95
2022-10-20T16:51:15.705Z,27.88
2022-10-20T16:53:43.171Z,25.67
2022-10-20T16:56:10.333Z,15.23
2022-10-20T16:58:37.273Z,10.77
2022-10-20T17:01:08.831Z,13.80
2022-10-20T17:03:38.114Z,19.50
2022-10-20T17:06:07.277Z,11.77
2022-10-20T17:08:36.297Z,18.92
2022-10-20T17:11:05.967Z,13.30
2022-10-20T17:13:33.467Z,12.02
2022-10-20T17:16:09.494Z,17.98
2022-10-20T17:18:36.832Z,16.67
2022-10-20T17:21:04.712Z,17.65
2022-10-20T17:23:36.262Z,19.15
2022-10-20T17:26:07.459Z,20.33
2022-10-20T17:28:36.552Z,19.73
2022-10-20T17:31:08.170Z,22.13
2022-10-20T17:33:35.223Z,22.90
2022-10-20T17:36:02.686Z,25.90
2022-10-20T17:38:30.298Z,26.58
2022-10-20T17:41:09.856Z,19.05
2022-10-20T17:43:37.558Z,27.58
2022-10-20T17:46:22.563Z,33.13
2022-10-20T17:48:49.453Z,26.58
2022-10-20T17:51:24.066Z,18.23
2022-10-20T17:53:53.050Z,20.42
2022-10-20T17:56:27.236Z,14.55
2022-10-20T17:58:55.275Z,16.42
2022-10-20T18:01:31.686Z,12.23
2022-10-20T18:04:13.801Z,12.20
2022-10-20T18:06:41.983Z,14.52
2022-10-20T18:09:11.988Z,7.65
2022-10-20T18:11:41.308Z,12.38
2022-10-20T18:14:08.093Z,10.23
2022-10-20T18:16:37.048Z,11.60
2022-10-20T18:19:04.503Z,14.05
2022-10-20T18:21:32.373Z,15.85
2022-10-20T18:24:05.740Z,10.77
2022-10-20T18:26:34.475Z,12.00
2022-10-20T18:29:02.100Z,14.45
2022-10-20T18:31:32.451Z,15.63
2022-10-20T18:34:04.362Z,13.07
2022-10-20T18:36:33.560Z,11.18
2022-10-20T18:39:00.980Z,12.43
2022-10-20T18:41:33.324Z,15.38
2022-10-20T18:44:01.590Z,12.15
2022-10-20T18:46:31.376Z,11.77
2022-10-20T18:48:59.843Z,13.40
2022-10-20T18:51:27.417Z,10.93
2022-10-20T18:53:56.750Z,12.55
2022-10-20T18:58:56.414Z,13.85
2022-10-20T19:01:35.132Z,8.85
2022-10-20T19:04:03.159Z,13.65
2022-10-20T19:06:32.550Z,11.63
2022-10-20T19:11:31.732Z,14.33
2022-10-20T19:13:59.058Z,9.13
2022-10-20T19:16:28.646Z,12.90
2022-10-20T19:18:57.769Z,11.83
2022-10-20T19:21:25.900Z,11.75
2022-10-20T19:24:04.567Z,14.17
2022-10-20T19:26:34.309Z,12.82
2022-10-20T19:29:05.094Z,14.67
2022-10-20T19:31:33.852Z,15.47
2022-10-20T19:34:32.020Z,14.95
2022-10-20T19:36:59.483Z,17.57
2022-10-20T19:39:30.147Z,13.97
2022-10-20T19:41:59.095Z,22.53
2022-10-20T19:44:26.555Z,22.23
2022-10-20T19:46:53.388Z,16.67
2022-10-20T19:49:21.783Z,19.03
2022-10-20T19:51:48.785Z,18.63
2022-10-20T19:54:15.934Z,18.10
2022-10-20T19:56:43.207Z,23.57
2022-10-20T19:59:10.810Z,18.30
2022-10-20T20:01:38.677Z,20.03
2022-10-20T20:04:06.564Z,17.40
2022-10-20T20:06:34.898Z,16.33
2022-10-20T20:09:07.260Z,18.83
2022-10-20T20:11:36.531Z,20.67
2022-10-20T20:14:09.362Z,19.77
2022-10-20T20:16:36.651Z,17.53
2022-10-20T20:19:04.141Z,18.90
2022-10-20T20:21:31.171Z,21.47
2022-10-20T20:24:00.854Z,22.47
2022-10-20T20:26:30.197Z,20.07
2022-10-20T20:28:57.679Z,15.60
2022-10-20T20:31:25.495Z,17.57
2022-10-20T20:33:53.223Z,21.37
2022-10-20T20:36:20.852Z,17.00
2022-10-20T20:38:47.707Z,23.90
2022-10-20T20:41:16.382Z,23.23
2022-10-20T20:43:46.813Z,21.85
2022-10-20T20:46:19.639Z,21.50
2022-10-20T20:48:46.803Z,24.77
2022-10-20T20:51:14.372Z,28.83
2022-10-20T20:53:41.881Z,35.37
2022-10-20T20:56:11.374Z,37.27
2022-10-20T20:58:38.590Z,24.37
2022-10-20T21:01:13.291Z,22.03
2022-10-20T21:03:41.140Z,28.57
2022-10-20T21:06:13.549Z,28.13
2022-10-20T21:08:43.052Z,27.97
2022-10-20T21:11:13.230Z,25.93
2022-10-20T21:13:42.015Z,21.57
2022-10-20T21:16:28.231Z,18.42
2022-10-20T21:18:57.617Z,17.43
2022-10-20T21:23:53.146Z,16.73
2022-10-20T21:26:21.547Z,16.50
2022-10-20T21:28:49.976Z,13.67
2022-10-20T21:31:19.249Z,14.02
2022-10-20T21:33:49.585Z,17.13
2022-10-20T21:36:18.426Z,15.00
2022-10-20T21:38:45.647Z,12.32
2022-10-20T21:41:21.507Z,15.23
2022-10-20T21:43:55.952Z,16.37
2022-10-20T21:46:29.447Z,12.53
2022-10-20T21:49:11.094Z,12.23
2022-10-20T21:51:40.526Z,11.73
2022-10-20T21:56:37.378Z,11.30
2022-10-20T21:59:05.634Z,11.75
2022-10-20T22:01:33.071Z,10.77
2022-10-20T22:03:59.981Z,11.30
2022-10-20T22:06:27.805Z,10.50
2022-10-20T22:08:57.361Z,11.30
2022-10-20T22:11:31.142Z,8.40
2022-10-20T22:13:58.357Z,10.27
2022-10-20T22:16:28.646Z,10.17
2022-10-20T22:18:57.592Z,11.57
2022-10-20T22:21:25.141Z,9.77
2022-10-20T22:23:54.139Z,9.93
2022-10-20T22:26:21.514Z,10.57
2022-10-20T22:28:50.633Z,9.67
2022-10-20T22:31:18.204Z,10.60
2022-10-20T22:33:45.186Z,11.23
2022-10-20T22:36:12.051Z,8.53
2022-10-20T22:38:38.889Z,8.27
2022-10-20T22:41:05.800Z,9.30
2022-10-20T22:43:32.790Z,11.83
2022-10-20T22:45:59.704Z,9.63
2022-10-20T22:48:26.479Z,8.47
2022-10-20T22:50:53.486Z,11.57
2022-10-20T22:53:20.534Z,10.33
2022-10-20T22:55:47.790Z,9.47
2022-10-20T22:58:14.595Z,10.70
2022-10-20T23:00:42.668Z,10.23
2022-10-20T23:03:10.482Z,10.67
2022-10-20T23:05:37.415Z,12.03
2022-10-20T23:08:04.908Z,10.20
2022-10-20T23:10:31.946Z,8.57
2022-10-20T23:12:58.780Z,9.83
2022-10-20T23:15:25.595Z,9.93
2022-10-20T23:17:52.531Z,10.33
2022-10-20T23:20:19.379Z,9.13
2022-10-20T23:22:48.403Z,9.43
2022-10-20T23:25:15.814Z,10.07
2022-10-20T23:27:42.656Z,11.63
2022-10-20T23:30:09.928Z,15.03
2022-10-20T23:32:36.807Z,14.47
2022-10-20T23:35:03.673Z,18.43
2022-10-20T23:37:30.540Z,18.70
2022-10-20T23:39:57.382Z,14.30
2022-10-20T23:42:24.454Z,14.97
2022-10-20T23:44:51.318Z,14.20
2022-10-20T23:47:18.087Z,13.53
2022-10-20T23:49:44.905Z,14.63
2022-10-20T23:52:13.130Z,12.80
2022-10-20T23:54:39.949Z,14.07
2022-10-20T23:57:06.710Z,13.40
2022-10-20T23:59:33.599Z,13.53
